Time;durP1;ratioP1;P1;durP2;ratioP2;P2;SDS_P1;SDS_P2;PMS_P1;PMS_P2;Temp;Humidity;BMP_temperature;BMP_pressure;BME280_temperature;BME280_humidity;BME280_pressure;Samples;Min_cycle;Max_cycle;Signal;HPM_P1;HPM_P2
2021/12/04 00:01:49;;;;;;;1.45;0.70;;;5.00;99.90;;;;;;5091245;28;20201;-62
2021/12/04 00:04:24;;;;;;;1.70;0.70;;;5.00;99.90;;;;;;5087097;28;20210;-61
2021/12/04 00:06:53;;;;;;;1.02;0.93;;;5.00;99.90;;;;;;5093139;28;20629;-61
2021/12/04 00:09:22;;;;;;;0.70;0.60;;;5.00;99.90;;;;;;5057902;28;20236;-62
2021/12/04 00:11:55;;;;;;;1.23;0.60;;;5.00;99.90;;;;;;5073899;28;20282;-63
2021/12/04 00:14:24;;;;;;;1.02;0.70;;;5.00;99.90;;;;;;5077092;28;20210;-62
2021/12/04 00:16:52;;;;;;;0.70;0.47;;;5.00;99.90;;;;;;5081943;28;20647;-63
2021/12/04 00:19:21;;;;;;;1.10;0.70;;;5.10;99.90;;;;;;5076621;28;20223;-62
2021/12/04 00:21:50;;;;;;;1.00;0.70;;;5.00;99.90;;;;;;5079340;28;20604;-63
2021/12/04 00:24:20;;;;;;;0.75;0.75;;;5.00;99.90;;;;;;5075861;28;20940;-61
2021/12/04 00:26:50;;;;;;;0.80;0.68;;;5.00;99.90;;;;;;5092679;28;20214;-61
2021/12/04 00:29:19;;;;;;;0.60;0.60;;;5.00;99.90;;;;;;5079119;28;20685;-61
2021/12/04 00:31:48;;;;;;;0.73;0.70;;;5.00;99.90;;;;;;5091371;28;20198;-62
2021/12/04 00:34:17;;;;;;;0.98;0.60;;;5.10;99.90;;;;;;5071591;28;20223;-62
2021/12/04 00:37:02;;;;;;;1.30;0.60;;;5.10;99.90;;;;;;5072696;28;20630;-62
2021/12/04 00:50:35;;;;;;;1.88;0.80;;;5.00;99.90;;;;;;5072250;28;20207;-62
2021/12/04 00:53:03;;;;;;;3.55;0.90;;;5.00;99.90;;;;;;5079145;28;20250;-62
2021/12/04 00:55:33;;;;;;;2.08;0.93;;;5.00;99.90;;;;;;5077153;28;20187;-63
2021/12/04 00:58:01;;;;;;;1.10;0.82;;;4.90;99.90;;;;;;5072909;28;20241;-62
2021/12/04 01:00:29;;;;;;;1.30;1.00;;;4.90;99.90;;;;;;5071626;28;20188;-62
2021/12/04 01:02:57;;;;;;;1.00;0.85;;;4.90;99.90;;;;;;5077875;28;20226;-62
2021/12/04 01:05:25;;;;;;;1.90;0.90;;;4.90;99.90;;;;;;5077920;28;20191;-63
2021/12/04 01:07:53;;;;;;;1.35;1.10;;;4.90;99.90;;;;;;5075576;28;20233;-62
2021/12/04 01:10:21;;;;;;;0.88;0.70;;;5.00;99.90;;;;;;5091995;28;20245;-62
2021/12/04 01:12:51;;;;;;;1.10;0.80;;;5.00;99.90;;;;;;5086715;28;20805;-62
2021/12/04 01:15:19;;;;;;;2.08;1.10;;;4.90;99.90;;;;;;5083876;28;20199;-62
2021/12/04 01:17:47;;;;;;;1.17;0.88;;;4.90;99.90;;;;;;5090607;28;20676;-62
2021/12/04 01:20:16;;;;;;;4.63;1.23;;;4.90;99.90;;;;;;5076212;28;20703;-63
2021/12/04 01:22:44;;;;;;;1.17;1.00;;;4.90;99.90;;;;;;5073916;27;20244;-62
2021/12/04 01:25:12;;;;;;;2.85;1.30;;;4.90;99.90;;;;;;5090164;28;20572;-62
2021/12/04 01:27:42;;;;;;;1.40;1.20;;;4.80;99.90;;;;;;5086375;28;20223;-63
2021/12/04 01:30:11;;;;;;;1.45;1.35;;;4.80;99.90;;;;;;5071782;28;20711;-63
2021/12/04 01:32:39;;;;;;;4.40;1.00;;;4.80;99.90;;;;;;5077960;28;20223;-62
2021/12/04 01:35:08;;;;;;;1.30;1.20;;;4.80;99.90;;;;;;5082142;28;20280;-63
2021/12/04 01:37:37;;;;;;;0.95;0.70;;;4.80;99.90;;;;;;5070316;27;20220;-62
2021/12/04 01:40:06;;;;;;;0.98;0.70;;;4.80;99.90;;;;;;5072156;28;20192;-63
2021/12/04 01:42:36;;;;;;;2.25;0.90;;;4.80;99.90;;;;;;5070248;28;20621;-62
2021/12/04 01:45:06;;;;;;;1.35;0.75;;;4.80;99.90;;;;;;5082560;28;20668;-62
2021/12/04 01:47:36;;;;;;;1.80;1.20;;;4.80;99.90;;;;;;5095399;28;20635;-63
2021/12/04 01:50:05;;;;;;;2.20;1.83;;;4.80;99.90;;;;;;5094881;28;20199;-62
2021/12/04 01:52:33;;;;;;;3.28;1.02;;;4.70;99.90;;;;;;5081732;28;20211;-63
2021/12/04 01:55:02;;;;;;;1.30;1.10;;;4.80;99.90;;;;;;5084156;28;20191;-62
2021/12/04 01:57:30;;;;;;;2.03;1.55;;;4.80;99.90;;;;;;5093280;28;20218;-62
2021/12/04 01:59:58;;;;;;;3.05;1.90;;;4.80;99.90;;;;;;5086147;28;20198;-63
2021/12/04 02:02:27;;;;;;;1.35;1.00;;;4.80;99.90;;;;;;5094176;28;20302;-62
2021/12/04 02:04:56;;;;;;;1.65;1.30;;;4.80;99.90;;;;;;5080862;28;20199;-62
2021/12/04 02:07:24;;;;;;;3.35;0.90;;;4.80;99.90;;;;;;5074158;28;20226;-62
2021/12/04 02:09:52;;;;;;;0.88;0.80;;;4.80;99.90;;;;;;5095260;28;20187;-62
2021/12/04 02:12:20;;;;;;;0.85;0.85;;;4.90;99.90;;;;;;5094761;28;20219;-62
2021/12/04 02:14:49;;;;;;;1.25;0.80;;;4.90;99.90;;;;;;5084250;28;20293;-62
2021/12/04 02:17:17;;;;;;;1.63;1.27;;;4.80;99.90;;;;;;5074293;28;20224;-62
2021/12/04 02:19:46;;;;;;;1.08;1.00;;;4.90;99.90;;;;;;5093952;28;20215;-62
2021/12/04 02:22:17;;;;;;;2.38;1.70;;;4.90;99.90;;;;;;5082305;28;20200;-61
2021/12/04 02:24:45;;;;;;;1.05;0.80;;;4.90;99.90;;;;;;5094723;28;20210;-62
2021/12/04 02:27:13;;;;;;;1.85;1.50;;;4.90;99.90;;;;;;5094146;28;20235;-61
2021/12/04 02:29:47;;;;;;;1.67;1.55;;;4.80;99.90;;;;;;5074430;28;20269;-62
2021/12/04 02:32:19;;;;;;;2.60;2.40;;;4.80;99.90;;;;;;5074585;28;20749;-62
2021/12/04 02:34:47;;;;;;;3.50;3.20;;;4.80;99.90;;;;;;5054390;28;20600;-62
2021/12/04 02:37:16;;;;;;;1.58;1.48;;;4.80;99.90;;;;;;5059895;28;20215;-62
2021/12/04 02:39:46;;;;;;;1.20;0.85;;;4.80;99.90;;;;;;5093652;28;20238;-61
2021/12/04 02:42:22;;;;;;;0.70;0.70;;;4.70;99.90;;;;;;5094825;28;20253;-61
2021/12/04 02:44:51;;;;;;;0.60;0.50;;;4.80;99.90;;;;;;5081250;28;20218;-62
2021/12/04 02:47:19;;;;;;;0.90;0.80;;;4.70;99.90;;;;;;5079986;28;20223;-62
2021/12/04 02:49:47;;;;;;;0.70;0.50;;;4.70;99.90;;;;;;5089634;28;20214;-61
2021/12/04 02:52:19;;;;;;;0.90;0.60;;;4.70;99.90;;;;;;5074951;28;20220;-62
2021/12/04 02:54:48;;;;;;;1.63;1.50;;;4.70;99.90;;;;;;5083416;28;20657;-62
2021/12/04 02:57:18;;;;;;;0.88;0.88;;;4.80;99.90;;;;;;5093527;28;20276;-62
2021/12/04 02:59:48;;;;;;;0.80;0.40;;;4.80;99.90;;;;;;5073165;28;20232;-62
2021/12/04 03:02:19;;;;;;;0.80;0.40;;;4.70;99.90;;;;;;5073797;28;20211;-62
2021/12/04 03:04:50;;;;;;;0.60;0.43;;;4.80;99.90;;;;;;5060826;28;20612;-62
2021/12/04 03:07:20;;;;;;;0.85;0.50;;;4.70;99.90;;;;;;5073718;28;20589;-62
2021/12/04 03:09:52;;;;;;;1.08;0.70;;;4.70;99.90;;;;;;5074076;28;20188;-62
2021/12/04 03:12:23;;;;;;;1.00;0.75;;;4.70;99.90;;;;;;5090761;28;20222;-61
2021/12/04 03:14:52;;;;;;;0.80;0.60;;;4.70;99.90;;;;;;5073466;28;20196;-61
2021/12/04 03:17:21;;;;;;;0.88;0.57;;;4.70;99.90;;;;;;5090341;28;20215;-61
2021/12/04 03:19:51;;;;;;;3.10;0.85;;;4.60;99.90;;;;;;5093930;28;20259;-62
2021/12/04 03:22:22;;;;;;;0.88;0.80;;;4.70;99.90;;;;;;5076023;28;20223;-63
2021/12/04 03:24:51;;;;;;;0.80;0.60;;;4.70;99.90;;;;;;5093608;28;20657;-63
2021/12/04 03:27:20;;;;;;;0.88;0.82;;;4.70;99.90;;;;;;5091297;28;20221;-62
2021/12/04 03:29:54;;;;;;;0.90;0.55;;;4.70;99.90;;;;;;5072900;28;20211;-62
2021/12/04 03:35:23;;;;;;;0.73;0.60;;;4.60;99.90;;;;;;5052838;28;20646;-62
2021/12/04 03:40:53;;;;;;;1.20;0.80;;;4.60;99.90;;;;;;5093628;28;20182;-62
2021/12/04 03:43:21;;;;;;;0.73;0.60;;;4.60;99.90;;;;;;5090233;28;20692;-63
2021/12/04 03:45:54;;;;;;;0.80;0.80;;;4.60;99.90;;;;;;5076558;28;20223;-62
2021/12/04 03:48:49;;;;;;;1.10;0.80;;;4.60;99.90;;;;;;5073784;28;20224;-62
2021/12/04 03:51:18;;;;;;;1.38;1.00;;;4.60;99.90;;;;;;5072532;28;20192;-62
2021/12/04 03:53:49;;;;;;;1.20;0.80;;;4.50;99.90;;;;;;5073662;28;20222;-62
2021/12/04 03:56:21;;;;;;;1.30;1.00;;;4.50;99.90;;;;;;5072835;28;20192;-62
2021/12/04 03:58:50;;;;;;;0.95;0.70;;;4.50;99.90;;;;;;5070325;28;20261;-62
2021/12/04 04:01:18;;;;;;;1.13;0.63;;;4.50;99.90;;;;;;5072827;28;20245;-62
2021/12/04 04:03:46;;;;;;;1.10;0.88;;;4.50;99.90;;;;;;5071784;28;20212;-62
2021/12/04 04:06:15;;;;;;;1.10;0.80;;;4.50;99.90;;;;;;5072440;28;20196;-62
2021/12/04 04:08:43;;;;;;;1.20;0.98;;;4.50;99.90;;;;;;5081570;28;20691;-63
2021/12/04 04:11:12;;;;;;;1.15;1.05;;;4.50;99.90;;;;;;5093139;28;20615;-62
2021/12/04 04:13:43;;;;;;;0.75;0.75;;;4.50;99.90;;;;;;5084744;28;20218;-62
2021/12/04 04:16:12;;;;;;;0.90;0.90;;;4.50;99.90;;;;;;5092729;28;20592;-62
2021/12/04 04:18:40;;;;;;;0.73;0.70;;;4.50;99.90;;;;;;5088472;28;20223;-62
2021/12/04 04:21:08;;;;;;;0.90;0.70;;;4.50;99.90;;;;;;5088467;28;20233;-63
2021/12/04 04:23:36;;;;;;;1.17;0.95;;;4.50;99.90;;;;;;5082243;28;20276;-62
2021/12/04 04:26:04;;;;;;;1.88;1.35;;;4.50;99.90;;;;;;5090726;28;20191;-63
2021/12/04 04:28:34;;;;;;;1.25;1.00;;;4.50;99.90;;;;;;5081600;28;20220;-62
2021/12/04 04:31:02;;;;;;;1.30;1.20;;;4.60;99.90;;;;;;5079820;28;20661;-63
2021/12/04 04:33:35;;;;;;;1.10;1.00;;;4.60;99.90;;;;;;5091250;28;20207;-63
2021/12/04 04:36:11;;;;;;;1.35;1.02;;;4.60;99.90;;;;;;5083930;28;20645;-62
2021/12/04 04:38:45;;;;;;;1.60;0.90;;;4.50;99.90;;;;;;5062026;28;20771;-63
2021/12/04 05:00:55;;;;;;;0.77;0.70;;;4.50;99.90;;;;;;5069275;28;20192;-62
2021/12/04 05:11:42;;;;;;;2.58;0.90;;;4.50;99.90;;;;;;5072637;28;20379;-61
2021/12/04 05:14:18;;;;;;;1.73;1.27;;;4.50;99.90;;;;;;5071678;28;20276;-63
2021/12/04 05:16:50;;;;;;;1.02;0.73;;;4.40;99.90;;;;;;5071983;28;20192;-63
2021/12/04 05:19:36;;;;;;;1.40;1.13;;;4.40;99.90;;;;;;5085422;28;20620;-62
2021/12/04 05:22:06;;;;;;;1.52;1.00;;;4.40;99.90;;;;;;5081035;28;20233;-63
2021/12/04 05:24:35;;;;;;;1.73;1.38;;;4.40;99.90;;;;;;5083871;28;20203;-62
2021/12/04 05:27:03;;;;;;;1.67;1.10;;;4.40;99.90;;;;;;5091758;28;20602;-62
2021/12/04 05:29:31;;;;;;;2.35;0.70;;;4.40;99.90;;;;;;5072719;28;20590;-62
2021/12/04 05:32:01;;;;;;;3.83;1.50;;;4.40;99.90;;;;;;5071529;28;20535;-62
2021/12/04 05:34:30;;;;;;;2.10;1.40;;;4.40;99.90;;;;;;5089630;28;20207;-62
2021/12/04 05:36:58;;;;;;;2.05;1.45;;;4.40;99.90;;;;;;5104301;28;20656;-62
2021/12/04 05:39:27;;;;;;;0.90;0.70;;;4.40;99.90;;;;;;5070908;28;20297;-62
2021/12/04 05:41:55;;;;;;;1.30;0.68;;;4.40;99.90;;;;;;5072510;28;20233;-62
2021/12/04 05:44:25;;;;;;;2.67;0.75;;;4.40;99.90;;;;;;5082764;28;20210;-63
2021/12/04 05:46:58;;;;;;;1.83;0.90;;;4.40;99.90;;;;;;5089351;28;20187;-63
2021/12/04 05:49:31;;;;;;;1.05;0.95;;;4.40;99.90;;;;;;5075519;28;20222;-63
2021/12/04 05:54:56;;;;;;;1.27;1.17;;;4.40;99.90;;;;;;5085977;28;20196;-62
2021/12/04 05:57:25;;;;;;;1.17;0.70;;;4.40;99.90;;;;;;5070374;28;20269;-62
2021/12/04 05:59:53;;;;;;;1.58;0.80;;;4.40;99.90;;;;;;5071410;28;20219;-63
2021/12/04 06:02:21;;;;;;;1.42;0.98;;;4.40;99.90;;;;;;5070764;28;20226;-62
2021/12/04 06:04:51;;;;;;;1.63;0.90;;;4.40;99.90;;;;;;5070819;28;20192;-62
2021/12/04 06:07:19;;;;;;;1.35;0.88;;;4.40;99.90;;;;;;5070180;28;20269;-62
2021/12/04 06:09:47;;;;;;;2.17;0.70;;;4.40;99.90;;;;;;5071146;28;20211;-62
2021/12/04 06:12:15;;;;;;;0.80;0.60;;;4.40;99.90;;;;;;5070227;28;20239;-63
2021/12/04 06:14:45;;;;;;;1.48;0.98;;;4.40;99.90;;;;;;5070247;28;20200;-62
2021/12/04 06:17:14;;;;;;;2.15;0.85;;;4.40;99.90;;;;;;5070527;28;20319;-62
2021/12/04 06:22:40;;;;;;;1.35;0.85;;;4.40;99.90;;;;;;5069802;28;20212;-64
2021/12/04 06:25:11;;;;;;;1.13;0.93;;;4.30;99.90;;;;;;5069587;28;20194;-62
2021/12/04 06:27:40;;;;;;;1.10;0.90;;;4.30;99.90;;;;;;5069804;28;20254;-62
2021/12/04 06:30:11;;;;;;;1.08;0.80;;;4.30;99.90;;;;;;5070752;28;20246;-63
2021/12/04 06:32:39;;;;;;;1.13;0.90;;;4.30;99.90;;;;;;5074153;28;20224;-62
2021/12/04 06:35:10;;;;;;;1.33;1.20;;;4.40;99.90;;;;;;5074443;28;20661;-62
2021/12/04 06:37:40;;;;;;;1.80;1.15;;;4.30;99.90;;;;;;5073167;28;20223;-62
2021/12/04 06:40:11;;;;;;;2.00;1.15;;;4.30;99.90;;;;;;5074738;28;20611;-62
2021/12/04 06:42:39;;;;;;;1.40;1.30;;;4.30;99.90;;;;;;5073149;28;20239;-63
2021/12/04 06:45:09;;;;;;;0.90;0.70;;;4.20;99.90;;;;;;5074060;28;20200;-62
2021/12/04 06:47:39;;;;;;;1.10;1.00;;;4.30;99.90;;;;;;5073679;28;20285;-62
2021/12/04 06:50:13;;;;;;;0.90;0.80;;;4.30;99.90;;;;;;5074706;28;20223;-62
2021/12/04 06:52:45;;;;;;;0.93;0.80;;;4.30;99.90;;;;;;5078423;28;20344;-62
2021/12/04 06:55:15;;;;;;;1.10;1.00;;;4.20;99.90;;;;;;5084477;28;20187;-62
2021/12/04 06:57:44;;;;;;;2.25;1.13;;;4.20;99.90;;;;;;5083175;28;20223;-62
2021/12/04 07:00:12;;;;;;;1.10;0.90;;;4.20;99.90;;;;;;5074097;28;20219;-62
2021/12/04 07:02:40;;;;;;;1.27;1.17;;;4.30;99.90;;;;;;5075661;28;20270;-62
2021/12/04 07:05:09;;;;;;;2.47;1.00;;;4.30;99.90;;;;;;5077861;28;20187;-62
2021/12/04 07:07:38;;;;;;;1.17;0.95;;;4.40;99.90;;;;;;5081732;28;20705;-63
2021/12/04 07:10:08;;;;;;;1.20;0.93;;;4.40;99.90;;;;;;5094243;28;20211;-62
2021/12/04 07:12:36;;;;;;;1.70;1.27;;;4.40;99.90;;;;;;5078492;28;20220;-62
2021/12/04 07:15:05;;;;;;;2.70;1.20;;;4.40;99.90;;;;;;5080190;28;20195;-62
2021/12/04 07:17:35;;;;;;;1.10;1.00;;;4.40;99.90;;;;;;5088210;28;20222;-62
2021/12/04 07:20:05;;;;;;;1.35;1.20;;;4.40;99.90;;;;;;5076173;28;20237;-62
2021/12/04 07:22:33;;;;;;;2.65;0.90;;;4.40;99.90;;;;;;5072248;28;20219;-62
2021/12/04 07:25:02;;;;;;;1.42;0.90;;;4.40;99.90;;;;;;5073364;28;20257;-62
2021/12/04 07:27:32;;;;;;;2.88;1.27;;;4.40;99.90;;;;;;5072178;28;20292;-62
2021/12/04 07:30:00;;;;;;;1.50;0.90;;;4.50;99.90;;;;;;5064991;28;20705;-62
2021/12/04 07:32:29;;;;;;;2.28;1.08;;;4.50;99.90;;;;;;5087985;28;20299;-62
2021/12/04 07:34:58;;;;;;;1.35;1.25;;;4.40;99.90;;;;;;5076125;28;20192;-62
2021/12/04 07:37:26;;;;;;;1.25;1.15;;;4.40;99.90;;;;;;5080657;28;20215;-62
2021/12/04 07:39:54;;;;;;;1.40;1.00;;;4.40;99.90;;;;;;5073413;28;20211;-62
2021/12/04 07:42:22;;;;;;;1.73;1.10;;;4.40;99.90;;;;;;5072769;28;20219;-62
2021/12/04 07:44:52;;;;;;;1.33;1.15;;;4.40;99.90;;;;;;5072526;28;20277;-62
2021/12/04 07:47:20;;;;;;;1.10;1.00;;;4.40;99.90;;;;;;5072675;28;20253;-62
2021/12/04 07:49:48;;;;;;;1.40;1.30;;;4.40;99.90;;;;;;5071895;28;20760;-61
2021/12/04 07:52:16;;;;;;;1.95;1.33;;;4.50;99.90;;;;;;5077757;28;20216;-63
2021/12/04 07:54:44;;;;;;;1.35;1.00;;;4.50;99.90;;;;;;5087468;28;20187;-61
2021/12/04 07:57:12;;;;;;;1.50;1.13;;;4.50;99.90;;;;;;5079556;28;20642;-61
2021/12/04 07:59:42;;;;;;;1.38;1.25;;;4.50;99.90;;;;;;5072650;28;20215;-62
2021/12/04 08:02:13;;;;;;;1.60;1.20;;;4.60;99.90;;;;;;5072512;28;20657;-62
2021/12/04 08:04:41;;;;;;;1.92;1.05;;;4.60;99.90;;;;;;5072788;28;20279;-62
2021/12/04 08:07:10;;;;;;;1.73;1.20;;;4.60;99.90;;;;;;5070509;28;20192;-62
2021/12/04 08:09:38;;;;;;;1.55;1.30;;;4.60;99.90;;;;;;5074903;28;20219;-62
2021/12/04 08:12:07;;;;;;;2.50;1.60;;;4.70;99.90;;;;;;5088222;28;20211;-61
2021/12/04 08:14:35;;;;;;;2.08;1.05;;;4.70;99.90;;;;;;5100555;28;20202;-61
2021/12/04 08:17:03;;;;;;;2.15;1.33;;;4.70;99.90;;;;;;5089191;28;20195;-62
2021/12/04 08:19:33;;;;;;;3.70;1.80;;;4.70;99.90;;;;;;5076916;28;21332;-62
2021/12/04 08:22:01;;;;;;;1.63;1.40;;;4.70;99.90;;;;;;5072905;28;20557;-61
2021/12/04 08:24:30;;;;;;;5.20;2.80;;;4.70;99.90;;;;;;5071003;28;20195;-62
2021/12/04 08:26:58;;;;;;;2.47;1.50;;;4.70;99.90;;;;;;5088133;28;20191;-62
2021/12/04 08:29:26;;;;;;;3.75;2.00;;;4.70;99.90;;;;;;5081531;28;20207;-62
2021/12/04 08:31:54;;;;;;;1.98;1.85;;;4.70;99.90;;;;;;5077522;28;20596;-62
2021/12/04 08:34:24;;;;;;;3.70;2.50;;;4.80;99.90;;;;;;5075543;28;20203;-62
2021/12/04 08:36:54;;;;;;;3.20;2.38;;;4.80;99.90;;;;;;5076418;28;20450;-62
2021/12/04 08:39:24;;;;;;;1.85;1.65;;;4.80;99.90;;;;;;5063823;28;20290;-61
2021/12/04 08:41:52;;;;;;;1.70;1.52;;;4.80;99.90;;;;;;5075976;28;20184;-63
2021/12/04 08:44:20;;;;;;;2.22;1.92;;;4.90;99.90;;;;;;5075959;28;20211;-62
2021/12/04 08:46:48;;;;;;;2.30;1.73;;;4.90;99.90;;;;;;5071728;28;20249;-62
2021/12/04 08:49:17;;;;;;;2.85;1.70;;;5.00;99.90;;;;;;5078647;28;20585;-62
2021/12/04 08:51:45;;;;;;;2.33;1.60;;;5.00;99.90;;;;;;5083549;28;20231;-62
2021/12/04 08:54:15;;;;;;;1.67;1.35;;;5.00;99.90;;;;;;5074184;28;20235;-62
2021/12/04 08:56:43;;;;;;;3.80;1.75;;;5.00;99.90;;;;;;5072346;28;20196;-62
2021/12/04 08:59:11;;;;;;;1.70;1.48;;;5.00;99.90;;;;;;5070564;28;20230;-62
2021/12/04 09:01:42;;;;;;;2.38;1.60;;;5.10;99.90;;;;;;5071711;28;20191;-62
2021/12/04 09:04:14;;;;;;;2.10;1.40;;;5.10;99.90;;;;;;5071024;28;20306;-62
2021/12/04 09:06:42;;;;;;;6.15;1.92;;;5.10;99.90;;;;;;5071845;28;20601;-63
2021/12/04 09:09:12;;;;;;;2.22;1.90;;;5.20;99.90;;;;;;5080148;28;20929;-62
2021/12/04 09:11:45;;;;;;;2.40;2.17;;;5.20;99.90;;;;;;5088851;28;20650;-62
2021/12/04 09:14:17;;;;;;;2.63;2.33;;;5.20;99.90;;;;;;5071428;28;20705;-62
2021/12/04 09:16:45;;;;;;;3.47;2.65;;;5.20;99.90;;;;;;5072793;28;20198;-63
2021/12/04 09:19:14;;;;;;;3.42;2.53;;;5.20;99.90;;;;;;5051214;28;20767;-62
2021/12/04 09:21:42;;;;;;;3.17;2.28;;;5.20;99.90;;;;;;5065872;28;20267;-62
2021/12/04 09:24:13;;;;;;;2.28;2.05;;;5.10;99.90;;;;;;5070608;28;20226;-62
2021/12/04 09:26:54;;;;;;;2.88;2.05;;;5.20;99.90;;;;;;5072384;28;20195;-62
2021/12/04 09:35:22;;;;;;;2.30;2.10;;;5.30;99.90;;;;;;5041128;28;20618;-62
2021/12/04 10:00:13;;;;;;;2.20;1.75;;;5.50;99.90;;;;;;5066450;28;20249;-62
2021/12/04 10:02:59;;;;;;;2.30;1.52;;;5.50;99.90;;;;;;5067782;28;20581;-62
2021/12/04 10:06:05;;;;;;;1.90;1.35;;;5.60;99.90;;;;;;5067622;28;20192;-62
2021/12/04 10:14:49;;;;;;;1.27;0.85;;;5.70;99.90;;;;;;5064896;28;20274;-61
2021/12/04 10:34:16;;;;;;;1.10;1.00;;;5.80;99.90;;;;;;5066596;28;20216;-63
2021/12/04 10:36:45;;;;;;;1.40;1.30;;;5.80;99.90;;;;;;5067795;28;20219;-62
2021/12/04 10:39:14;;;;;;;1.55;1.00;;;5.80;99.90;;;;;;5063783;28;20220;-62
2021/12/04 10:41:45;;;;;;;1.13;0.63;;;5.90;99.90;;;;;;5064734;28;20239;-62
2021/12/04 10:44:18;;;;;;;1.73;1.30;;;6.00;99.90;;;;;;5038310;28;20730;-63
2021/12/04 10:46:55;;;;;;;1.17;1.00;;;6.00;99.90;;;;;;5050274;28;20200;-63
2021/12/04 10:49:36;;;;;;;1.73;1.10;;;6.00;99.90;;;;;;5053462;28;20640;-63
2021/12/04 10:52:12;;;;;;;1.45;1.17;;;6.10;99.90;;;;;;5052106;28;20383;-63
2021/12/04 10:54:43;;;;;;;1.17;0.90;;;6.10;99.90;;;;;;5033227;28;20559;-63
2021/12/04 10:57:35;;;;;;;1.10;0.80;;;6.10;99.90;;;;;;5033271;28;20622;-63
2021/12/04 11:00:09;;;;;;;1.05;0.90;;;6.10;99.90;;;;;;5033982;28;20729;-63
2021/12/04 11:02:43;;;;;;;1.50;1.25;;;6.10;99.90;;;;;;5033357;28;21005;-62
2021/12/04 11:05:50;;;;;;;1.77;1.58;;;6.00;99.90;;;;;;5033908;28;20197;-63
2021/12/04 11:19:55;;;;;;;0.93;0.80;;;6.00;99.90;;;;;;5034051;28;20710;-63
2021/12/04 11:22:28;;;;;;;2.13;0.90;;;6.10;99.90;;;;;;5032552;28;20221;-63
2021/12/04 11:25:21;;;;;;;0.80;0.57;;;6.20;99.90;;;;;;5014230;28;20190;-62
2021/12/04 11:28:11;;;;;;;1.40;0.90;;;6.20;99.90;;;;;;5018965;28;20223;-63
2021/12/04 11:36:26;;;;;;;2.22;1.13;;;6.30;99.90;;;;;;5025266;28;20255;-63
2021/12/04 11:39:05;;;;;;;1.00;0.80;;;6.20;99.90;;;;;;5032530;28;20256;-63
2021/12/04 11:41:37;;;;;;;1.85;1.48;;;6.20;99.90;;;;;;5028716;28;20675;-63
2021/12/04 11:44:10;;;;;;;1.45;1.20;;;6.20;99.90;;;;;;5019075;28;20304;-62
2021/12/04 11:46:43;;;;;;;1.92;1.70;;;6.20;99.90;;;;;;5023944;28;20189;-63
2021/12/04 11:49:18;;;;;;;2.38;1.58;;;6.20;99.90;;;;;;5016784;28;20222;-62
2021/12/04 11:51:56;;;;;;;2.13;1.60;;;6.20;99.90;;;;;;5017453;28;20219;-63
2021/12/04 11:54:26;;;;;;;1.48;1.38;;;6.20;99.90;;;;;;5031997;28;20648;-63
2021/12/04 11:57:01;;;;;;;4.32;1.55;;;6.20;99.90;;;;;;5033388;28;20191;-60
2021/12/04 11:59:33;;;;;;;1.45;1.20;;;6.30;99.90;;;;;;5025061;28;20702;-59
2021/12/04 12:02:04;;;;;;;2.00;1.50;;;6.30;99.90;;;;;;5021669;28;20287;-60
2021/12/04 12:04:36;;;;;;;2.13;1.40;;;6.30;99.90;;;;;;5013361;28;20190;-60
2021/12/04 12:07:13;;;;;;;1.63;1.33;;;6.30;99.90;;;;;;5029122;28;20198;-59
2021/12/04 12:09:42;;;;;;;1.58;1.25;;;6.30;99.90;;;;;;5013297;28;20220;-59
2021/12/04 12:12:13;;;;;;;2.00;1.80;;;6.30;99.90;;;;;;5012366;28;20594;-61
2021/12/04 12:14:48;;;;;;;1.60;1.50;;;6.30;99.90;;;;;;5015236;28;20195;-59
2021/12/04 12:17:30;;;;;;;1.70;1.20;;;6.30;99.90;;;;;;5031361;28;20225;-59
2021/12/04 12:19:58;;;;;;;1.80;1.70;;;6.30;99.90;;;;;;5030877;28;20193;-60
2021/12/04 12:22:37;;;;;;;1.58;1.45;;;6.20;99.90;;;;;;5029743;28;20227;-59
2021/12/04 12:25:23;;;;;;;2.75;2.00;;;6.10;99.90;;;;;;5020905;28;20204;-60
2021/12/04 12:33:39;;;;;;;2.78;1.60;;;6.10;99.90;;;;;;5031448;28;20229;-59
2021/12/04 12:36:11;;;;;;;2.75;2.38;;;6.10;99.90;;;;;;5030584;28;20196;-60
2021/12/04 12:38:46;;;;;;;2.20;2.00;;;6.10;99.90;;;;;;5011833;28;20280;-60
2021/12/04 12:41:24;;;;;;;2.75;2.38;;;6.10;99.90;;;;;;5030145;28;20259;-59
2021/12/04 12:44:01;;;;;;;2.55;2.35;;;6.10;99.90;;;;;;5019598;28;20218;-59
2021/12/04 12:46:37;;;;;;;1.90;1.80;;;6.10;99.90;;;;;;5032011;28;20197;-58
2021/12/04 12:49:17;;;;;;;5.55;1.83;;;6.10;99.90;;;;;;5031386;28;20703;-59
2021/12/04 12:51:52;;;;;;;1.95;1.75;;;6.10;99.90;;;;;;5012655;28;20558;-59
2021/12/04 12:54:26;;;;;;;2.65;2.00;;;6.10;99.90;;;;;;5027163;28;20222;-59
2021/12/04 12:57:00;;;;;;;1.70;1.60;;;6.20;99.90;;;;;;5023770;28;20249;-60
2021/12/04 12:59:42;;;;;;;2.10;1.77;;;6.20;99.90;;;;;;5034997;28;20623;-59
2021/12/04 13:13:29;;;;;;;1.73;1.35;;;6.20;99.90;;;;;;5038450;28;20246;-59
2021/12/04 13:16:04;;;;;;;2.20;1.60;;;6.20;99.90;;;;;;5051371;28;20193;-59
2021/12/04 13:18:36;;;;;;;1.77;1.23;;;6.20;99.90;;;;;;5050778;28;20217;-59
2021/12/04 13:21:08;;;;;;;2.05;1.20;;;6.20;99.90;;;;;;5046504;28;20203;-59
2021/12/04 13:23:37;;;;;;;2.78;1.67;;;6.10;99.90;;;;;;5040306;28;20226;-59
2021/12/04 13:26:08;;;;;;;2.10;1.63;;;6.10;99.90;;;;;;5050955;28;20206;-59
2021/12/04 13:28:39;;;;;;;1.33;0.95;;;6.10;99.90;;;;;;5049808;28;20599;-59
2021/12/04 13:31:08;;;;;;;4.18;1.35;;;6.20;99.90;;;;;;5035084;28;20205;-58
2021/12/04 13:33:40;;;;;;;3.22;1.52;;;6.10;99.90;;;;;;5044763;28;20262;-59
2021/12/04 13:36:13;;;;;;;2.15;1.65;;;6.00;99.90;;;;;;5051353;28;20243;-59
2021/12/04 13:38:42;;;;;;;2.88;1.80;;;6.00;99.90;;;;;;5050334;28;20243;-59
2021/12/04 13:41:11;;;;;;;2.22;1.58;;;6.10;99.90;;;;;;5051821;28;20244;-59
2021/12/04 13:43:40;;;;;;;2.60;1.40;;;6.10;99.90;;;;;;5040535;28;20262;-59
2021/12/04 13:46:08;;;;;;;2.22;1.60;;;6.10;99.90;;;;;;5045069;28;20189;-59
2021/12/04 13:48:38;;;;;;;1.98;1.50;;;6.10;99.90;;;;;;5048121;28;20239;-58
2021/12/04 13:51:06;;;;;;;1.20;1.00;;;6.10;99.90;;;;;;5031139;28;20688;-60
2021/12/04 13:53:37;;;;;;;1.60;1.40;;;6.00;99.90;;;;;;5042909;28;20231;-58
2021/12/04 13:56:08;;;;;;;3.00;1.65;;;6.00;99.90;;;;;;5048685;28;20199;-59
2021/12/04 13:58:45;;;;;;;1.60;1.50;;;6.00;99.90;;;;;;5035858;28;20287;-59
2021/12/04 14:01:13;;;;;;;4.32;1.70;;;6.00;99.90;;;;;;5040543;28;20634;-59
2021/12/04 14:03:45;;;;;;;1.73;1.35;;;6.00;99.90;;;;;;5050368;28;20229;-58
2021/12/04 14:06:15;;;;;;;2.17;1.48;;;6.00;99.90;;;;;;5051272;28;20568;-59
2021/12/04 14:08:55;;;;;;;2.65;1.58;;;6.00;99.90;;;;;;5048093;28;20220;-59
2021/12/04 14:11:28;;;;;;;1.98;1.65;;;6.00;99.90;;;;;;5043435;28;20197;-59
2021/12/04 14:13:57;;;;;;;2.80;1.92;;;6.00;99.90;;;;;;5030798;28;20238;-59
2021/12/04 14:16:25;;;;;;;2.35;1.70;;;6.00;99.90;;;;;;5047907;28;20247;-59
2021/12/04 14:18:55;;;;;;;2.95;2.30;;;6.00;99.90;;;;;;5053973;28;20283;-59
2021/12/04 14:21:23;;;;;;;4.47;3.30;;;6.00;99.90;;;;;;5052800;28;20190;-58
2021/12/04 14:23:52;;;;;;;4.85;3.55;;;6.00;99.90;;;;;;5053682;28;20225;-59
2021/12/04 14:26:20;;;;;;;6.88;4.13;;;6.00;99.90;;;;;;5054507;28;20198;-59
2021/12/04 14:29:04;;;;;;;6.07;4.47;;;5.90;99.90;;;;;;5040908;28;20255;-58
2021/12/04 14:31:32;;;;;;;6.07;5.05;;;5.90;99.90;;;;;;5050690;28;20226;-59
2021/12/04 14:34:02;;;;;;;7.53;5.40;;;5.70;99.90;;;;;;5054051;28;20255;-59
2021/12/04 14:36:30;;;;;;;6.45;5.63;;;5.60;99.90;;;;;;5044414;28;20244;-59
2021/12/04 14:39:02;;;;;;;8.13;5.60;;;5.70;99.90;;;;;;5047028;28;20286;-58
2021/12/04 14:41:32;;;;;;;8.50;5.45;;;5.60;99.90;;;;;;5050545;28;20572;-59
2021/12/04 14:44:00;;;;;;;6.07;5.22;;;5.60;99.90;;;;;;5041004;28;20224;-58
2021/12/04 14:46:29;;;;;;;6.95;5.10;;;5.60;99.90;;;;;;5051776;28;20613;-59
2021/12/04 14:49:02;;;;;;;6.07;3.53;;;5.60;99.90;;;;;;5053802;28;20224;-59
2021/12/04 14:51:31;;;;;;;3.85;2.63;;;5.50;99.90;;;;;;5045103;28;20200;-59
2021/12/04 14:54:00;;;;;;;3.28;2.05;;;5.50;99.90;;;;;;5033919;28;20291;-59
2021/12/04 14:56:30;;;;;;;1.88;1.48;;;5.40;99.90;;;;;;5051329;28;20198;-58
2021/12/04 14:58:58;;;;;;;2.72;2.28;;;5.30;99.90;;;;;;5040805;28;20221;-58
2021/12/04 15:01:32;;;;;;;2.40;1.30;;;5.20;99.90;;;;;;5050363;28;20295;-59
2021/12/04 15:04:03;;;;;;;3.83;2.40;;;5.00;99.90;;;;;;5053571;28;20218;-59
2021/12/04 15:06:36;;;;;;;1.48;1.38;;;5.00;99.90;;;;;;5053971;28;20215;-59
2021/12/04 15:09:09;;;;;;;2.10;1.90;;;5.00;99.90;;;;;;5038190;28;20253;-58
2021/12/04 15:11:39;;;;;;;3.10;2.00;;;5.00;99.90;;;;;;5049089;28;20189;-59
2021/12/04 15:14:11;;;;;;;1.77;1.67;;;4.90;99.90;;;;;;5039174;28;20221;-59
2021/12/04 15:16:47;;;;;;;1.70;1.60;;;4.90;99.90;;;;;;5051480;28;20223;-59
2021/12/04 15:19:19;;;;;;;2.35;1.67;;;4.80;99.90;;;;;;5053377;28;20281;-59
2021/12/04 15:21:52;;;;;;;1.77;1.65;;;4.90;99.90;;;;;;5044778;28;20597;-58
2021/12/04 15:24:24;;;;;;;1.60;1.50;;;4.80;99.90;;;;;;5033773;28;20750;-59
2021/12/04 15:26:57;;;;;;;2.95;1.85;;;4.80;99.90;;;;;;5052152;28;20222;-59
2021/12/04 15:29:28;;;;;;;1.85;1.75;;;4.80;99.90;;;;;;5045597;28;20232;-59
2021/12/04 15:32:00;;;;;;;1.70;1.50;;;4.80;99.90;;;;;;5051998;28;20196;-59
2021/12/04 15:34:34;;;;;;;3.50;1.83;;;4.80;99.90;;;;;;5033295;28;20205;-59